sensor_id;sensor_type;location;lat;lon;timestamp;pressure;altitude;pressure_sealevel;temperature;humidity
72061;BME280;59925;52.136;5.420;2023-03-26T00:02:13;100878.47;;;6.77;100.00
72061;BME280;59925;52.136;5.420;2023-03-26T00:04:39;100878.00;;;6.80;100.00
72061;BME280;59925;52.136;5.420;2023-03-26T00:07:07;100876.38;;;6.79;100.00
72061;BME280;59925;52.136;5.420;2023-03-26T00:09:35;100875.81;;;6.77;100.00
72061;BME280;59925;52.136;5.420;2023-03-26T00:12:02;100871.31;;;6.78;100.00
72061;BME280;59925;52.136;5.420;2023-03-26T00:14:28;100869.44;;;6.78;100.00
72061;BME280;59925;52.136;5.420;2023-03-26T00:16:55;100875.81;;;6.77;100.00
72061;BME280;59925;52.136;5.420;2023-03-26T00:19:22;100868.38;;;6.79;100.00
72061;BME280;59925;52.136;5.420;2023-03-26T00:21:48;100876.06;;;6.75;100.00
72061;BME280;59925;52.136;5.420;2023-03-26T00:24:16;100865.41;;;6.75;100.00
72061;BME280;59925;52.136;5.420;2023-03-26T00:26:43;100867.59;;;6.79;100.00
72061;BME280;59925;52.136;5.420;2023-03-26T00:29:10;100860.63;;;6.78;100.00
72061;BME280;59925;52.136;5.420;2023-03-26T00:31:38;100861.38;;;6.73;100.00
72061;BME280;59925;52.136;5.420;2023-03-26T00:34:06;100868.06;;;6.75;100.00
72061;BME280;59925;52.136;5.420;2023-03-26T00:36:32;100864.03;;;6.73;100.00
72061;BME280;59925;52.136;5.420;2023-03-26T00:39:01;100855.78;;;6.74;100.00
72061;BME280;59925;52.136;5.420;2023-03-26T00:41:30;100856.34;;;6.77;100.00
72061;BME280;59925;52.136;5.420;2023-03-26T00:43:58;100850.72;;;6.73;100.00
72061;BME280;59925;52.136;5.420;2023-03-26T00:46:27;100841.59;;;6.69;100.00
72061;BME280;59925;52.136;5.420;2023-03-26T00:48:54;100831.97;;;6.68;100.00
72061;BME280;59925;52.136;5.420;2023-03-26T00:51:24;100838.91;;;6.69;100.00
72061;BME280;59925;52.136;5.420;2023-03-26T00:53:51;100838.09;;;6.68;100.00
72061;BME280;59925;52.136;5.420;2023-03-26T00:56:18;100833.59;;;6.69;100.00
72061;BME280;59925;52.136;5.420;2023-03-26T00:58:44;100829.31;;;6.68;100.00
72061;BME280;59925;52.136;5.420;2023-03-26T01:01:24;100823.19;;;6.67;100.00
72061;BME280;59925;52.136;5.420;2023-03-26T01:03:55;100826.06;;;6.66;100.00
72061;BME280;59925;52.136;5.420;2023-03-26T01:06:36;100829.31;;;6.68;100.00
72061;BME280;59925;52.136;5.420;2023-03-26T01:09:12;100828.53;;;6.67;100.00
72061;BME280;59925;52.136;5.420;2023-03-26T01:11:39;100820.53;;;6.67;100.00
72061;BME280;59925;52.136;5.420;2023-03-26T01:14:10;100829.31;;;6.68;100.00
72061;BME280;59925;52.136;5.420;2023-03-26T01:16:43;100822.63;;;6.65;100.00
72061;BME280;59925;52.136;5.420;2023-03-26T01:19:29;100814.06;;;6.63;100.00
72061;BME280;59925;52.136;5.420;2023-03-26T01:21:59;100807.13;;;6.62;100.00
72061;BME280;59925;52.136;5.420;2023-03-26T01:24:25;100796.47;;;6.62;100.00
72061;BME280;59925;52.136;5.420;2023-03-26T01:27:08;100793.00;;;6.62;100.00
72061;BME280;59925;52.136;5.420;2023-03-26T01:29:51;100786.59;;;6.63;100.00
72061;BME280;59925;52.136;5.420;2023-03-26T01:35:02;100779.44;;;6.63;100.00
72061;BME280;59925;52.136;5.420;2023-03-26T01:40:56;100780.22;;;6.64;100.00
72061;BME280;59925;52.136;5.420;2023-03-26T01:46:10;100774.41;;;6.67;100.00
72061;BME280;59925;52.136;5.420;2023-03-26T01:48:41;100769.66;;;6.69;100.00
72061;BME280;59925;52.136;5.420;2023-03-26T01:51:10;100763.28;;;6.70;100.00
72061;BME280;59925;52.136;5.420;2023-03-26T01:53:43;100749.94;;;6.70;100.00
72061;BME280;59925;52.136;5.420;2023-03-26T01:56:28;100751.78;;;6.69;100.00
72061;BME280;59925;52.136;5.420;2023-03-26T01:59:18;100751.00;;;6.69;100.00
72061;BME280;59925;52.136;5.420;2023-03-26T02:01:53;100746.47;;;6.69;100.00
72061;BME280;59925;52.136;5.420;2023-03-26T02:04:29;100743.00;;;6.69;100.00
72061;BME280;59925;52.136;5.420;2023-03-26T02:07:18;100737.94;;;6.67;100.00
72061;BME280;59925;52.136;5.420;2023-03-26T02:09:49;100728.34;;;6.66;100.00
72061;BME280;59925;52.136;5.420;2023-03-26T02:12:19;100718.97;;;6.64;100.00
72061;BME280;59925;52.136;5.420;2023-03-26T02:14:47;100724.28;;;6.64;100.00
72061;BME280;59925;52.136;5.420;2023-03-26T02:17:14;100713.63;;;6.64;100.00
72061;BME280;59925;52.136;5.420;2023-03-26T02:19:41;100722.44;;;6.64;100.00
72061;BME280;59925;52.136;5.420;2023-03-26T02:22:08;100720.81;;;6.63;100.00
72061;BME280;59925;52.136;5.420;2023-03-26T02:24:42;100720.81;;;6.63;100.00
72061;BME280;59925;52.136;5.420;2023-03-26T02:27:08;100711.22;;;6.62;100.00
72061;BME280;59925;52.136;5.420;2023-03-26T02:29:38;100713.31;;;6.60;100.00
72061;BME280;59925;52.136;5.420;2023-03-26T02:32:06;100710.66;;;6.60;100.00
72061;BME280;59925;52.136;5.420;2023-03-26T02:34:33;100701.63;;;6.61;100.00
72061;BME280;59925;52.136;5.420;2023-03-26T02:36:59;100705.09;;;6.62;100.00
72061;BME280;59925;52.136;5.420;2023-03-26T02:39:26;100698.69;;;6.63;100.00
72061;BME280;59925;52.136;5.420;2023-03-26T02:41:52;100699.50;;;6.63;100.00
72061;BME280;59925;52.136;5.420;2023-03-26T02:44:19;100696.03;;;6.63;100.00
72061;BME280;59925;52.136;5.420;2023-03-26T02:46:46;100688.03;;;6.63;100.00
72061;BME280;59925;52.136;5.420;2023-03-26T02:49:12;100698.22;;;6.66;100.00
72061;BME280;59925;52.136;5.420;2023-03-26T02:51:39;100697.16;;;6.67;100.00
72061;BME280;59925;52.136;5.420;2023-03-26T02:54:05;100691.34;;;6.70;100.00
72061;BME280;59925;52.136;5.420;2023-03-26T02:56:35;100690.28;;;6.71;100.00
72061;BME280;59925;52.136;5.420;2023-03-26T02:59:02;100686.31;;;6.73;100.00
72061;BME280;59925;52.136;5.420;2023-03-26T03:01:28;100694.06;;;6.75;100.00
72061;BME280;59925;52.136;5.420;2023-03-26T03:03:56;100695.38;;;6.72;100.00
72061;BME280;59925;52.136;5.420;2023-03-26T03:06:22;100682.59;;;6.74;100.00
72061;BME280;59925;52.136;5.420;2023-03-26T03:08:51;100682.13;;;6.78;100.00
72061;BME280;59925;52.136;5.420;2023-03-26T03:11:19;100673.88;;;6.79;100.00
72061;BME280;59925;52.136;5.420;2023-03-26T03:13:51;100670.16;;;6.80;100.00
72061;BME280;59925;52.136;5.420;2023-03-26T03:16:17;100676.03;;;6.82;100.00
72061;BME280;59925;52.136;5.420;2023-03-26T03:18:45;100676.03;;;6.82;100.00
72061;BME280;59925;52.136;5.420;2023-03-26T03:21:12;100672.88;;;6.85;100.00
72061;BME280;59925;52.136;5.420;2023-03-26T03:23:39;100666.75;;;6.85;100.00
72061;BME280;59925;52.136;5.420;2023-03-26T03:26:12;100662.78;;;6.87;100.00
72061;BME280;59925;52.136;5.420;2023-03-26T03:28:39;100665.19;;;6.89;100.00
72061;BME280;59925;52.136;5.420;2023-03-26T03:31:06;100657.75;;;6.91;100.00
72061;BME280;59925;52.136;5.420;2023-03-26T03:33:34;100651.13;;;6.94;100.00
72061;BME280;59925;52.136;5.420;2023-03-26T03:36:01;100653.28;;;6.97;100.00
72061;BME280;59925;52.136;5.420;2023-03-26T03:38:32;100644.25;;;6.98;100.00
72061;BME280;59925;52.136;5.420;2023-03-26T03:40:58;100654.66;;;6.99;100.00
72061;BME280;59925;52.136;5.420;2023-03-26T03:43:24;100658.66;;;7.02;100.00
72061;BME280;59925;52.136;5.420;2023-03-26T03:45:52;100649.38;;;7.04;100.00
72061;BME280;59925;52.136;5.420;2023-03-26T03:48:19;100653.41;;;7.07;100.00
72061;BME280;59925;52.136;5.420;2023-03-26T03:50:46;100653.69;;;7.11;100.00
72061;BME280;59925;52.136;5.420;2023-03-26T03:53:12;100650.81;;;7.12;100.00
72061;BME280;59925;52.136;5.420;2023-03-26T03:55:41;100650.81;;;7.12;100.00
72061;BME280;59925;52.136;5.420;2023-03-26T03:58:08;100651.34;;;7.14;100.00
72061;BME280;59925;52.136;5.420;2023-03-26T04:00:34;100655.59;;;7.15;100.00
72061;BME280;59925;52.136;5.420;2023-03-26T04:03:06;100651.34;;;7.14;100.00
72061;BME280;59925;52.136;5.420;2023-03-26T04:05:35;100647.38;;;7.17;100.00
72061;BME280;59925;52.136;5.420;2023-03-26T04:08:01;100644.44;;;7.18;100.00
72061;BME280;59925;52.136;5.420;2023-03-26T04:10:28;100635.41;;;7.19;100.00
72061;BME280;59925;52.136;5.420;2023-03-26T04:12:54;100638.06;;;7.19;100.00
72061;BME280;59925;52.136;5.420;2023-03-26T04:15:21;100633.28;;;7.21;100.00
72061;BME280;59925;52.136;5.420;2023-03-26T04:17:47;100631.19;;;7.24;100.00
72061;BME280;59925;52.136;5.420;2023-03-26T04:20:14;100618.63;;;7.24;100.00
72061;BME280;59925;52.136;5.420;2023-03-26T04:22:42;100619.19;;;7.26;100.00
72061;BME280;59925;52.136;5.420;2023-03-26T04:25:09;100621.06;;;7.26;100.00
72061;BME280;59925;52.136;5.420;2023-03-26T04:27:38;100611.75;;;7.28;100.00
72061;BME280;59925;52.136;5.420;2023-03-26T04:30:09;100606.41;;;7.28;100.00
72061;BME280;59925;52.136;5.420;2023-03-26T04:32:40;100605.63;;;7.28;100.00
72061;BME280;59925;52.136;5.420;2023-03-26T04:35:12;100600.28;;;7.28;100.00
72061;BME280;59925;52.136;5.420;2023-03-26T04:37:40;100605.63;;;7.28;100.00
72061;BME280;59925;52.136;5.420;2023-03-26T04:40:18;100594.97;;;7.28;100.00
72061;BME280;59925;52.136;5.420;2023-03-26T04:42:45;100593.34;;;7.27;100.00
72061;BME280;59925;52.136;5.420;2023-03-26T04:45:14;100584.31;;;7.28;100.00
72061;BME280;59925;52.136;5.420;2023-03-26T04:47:41;100578.16;;;7.27;100.00
72061;BME280;59925;52.136;5.420;2023-03-26T04:50:09;100572.03;;;7.27;100.00
72061;BME280;59925;52.136;5.420;2023-03-26T04:52:36;100575.75;;;7.26;100.00
72061;BME280;59925;52.136;5.420;2023-03-26T04:55:06;100571.19;;;7.26;100.00
72061;BME280;59925;52.136;5.420;2023-03-26T04:57:40;100566.13;;;7.25;100.00
72061;BME280;59925;52.136;5.420;2023-03-26T05:00:14;100569.59;;;7.25;100.00
72061;BME280;59925;52.136;5.420;2023-03-26T05:02:42;100560.53;;;7.26;100.00
72061;BME280;59925;52.136;5.420;2023-03-26T05:05:09;100558.94;;;7.25;100.00
72061;BME280;59925;52.136;5.420;2023-03-26T05:07:36;100555.47;;;7.25;100.00
72061;BME280;59925;52.136;5.420;2023-03-26T05:10:03;100555.47;;;7.25;100.00
72061;BME280;59925;52.136;5.420;2023-03-26T05:12:30;100550.13;;;7.25;100.00
72061;BME280;59925;52.136;5.420;2023-03-26T05:14:57;100545.84;;;7.24;100.00
72061;BME280;59925;52.136;5.420;2023-03-26T05:17:23;100543.97;;;7.24;100.00
72061;BME280;59925;52.136;5.420;2023-03-26T05:19:50;100550.13;;;7.25;100.00
72061;BME280;59925;52.136;5.420;2023-03-26T05:22:18;100546.66;;;7.24;100.00
72061;BME280;59925;52.136;5.420;2023-03-26T05:24:45;100551.97;;;7.24;100.00
72061;BME280;59925;52.136;5.420;2023-03-26T05:27:15;100538.41;;;7.26;100.00
72061;BME280;59925;52.136;5.420;2023-03-26T05:29:47;100524.81;;;7.27;100.00
72061;BME280;59925;52.136;5.420;2023-03-26T05:32:14;100531.19;;;7.26;100.00
72061;BME280;59925;52.136;5.420;2023-03-26T05:34:40;100524.81;;;7.27;100.00
72061;BME280;59925;52.136;5.420;2023-03-26T05:37:07;100524.56;;;7.29;100.00
72061;BME280;59925;52.136;5.420;2023-03-26T05:39:34;100518.16;;;7.30;100.00
72061;BME280;59925;52.136;5.420;2023-03-26T05:42:00;100523.50;;;7.30;100.00
72061;BME280;59925;52.136;5.420;2023-03-26T05:44:27;100521.66;;;7.30;100.00
72061;BME280;59925;52.136;5.420;2023-03-26T05:46:54;100519.25;;;7.34;100.00
72061;BME280;59925;52.136;5.420;2023-03-26T05:49:20;100514.19;;;7.32;100.00
72061;BME280;59925;52.136;5.420;2023-03-26T05:51:47;100512.88;;;7.35;100.00
72061;BME280;59925;52.136;5.420;2023-03-26T05:54:14;100511.81;;;7.36;100.00
72061;BME280;59925;52.136;5.420;2023-03-26T05:56:40;100516.34;;;7.35;100.00
72061;BME280;59925;52.136;5.420;2023-03-26T05:59:07;100501.94;;;7.36;100.00
72061;BME280;59925;52.136;5.420;2023-03-26T06:01:33;100502.75;;;7.37;100.00
72061;BME280;59925;52.136;5.420;2023-03-26T06:04:00;100504.38;;;7.38;100.00
72061;BME280;59925;52.136;5.420;2023-03-26T06:06:27;100505.97;;;7.39;100.00
72061;BME280;59925;52.136;5.420;2023-03-26T06:08:53;100500.66;;;7.39;100.00
72061;BME280;59925;52.136;5.420;2023-03-26T06:11:28;100496.38;;;7.43;100.00
72061;BME280;59925;52.136;5.420;2023-03-26T06:13:55;100490.56;;;7.46;100.00
72061;BME280;59925;52.136;5.420;2023-03-26T06:16:22;100481.22;;;7.49;100.00
72061;BME280;59925;52.136;5.420;2023-03-26T06:18:52;100483.38;;;7.52;100.00
72061;BME280;59925;52.136;5.420;2023-03-26T06:21:23;100478.59;;;7.54;100.00
72061;BME280;59925;52.136;5.420;2023-03-26T06:23:49;100479.38;;;7.55;100.00
72061;BME280;59925;52.136;5.420;2023-03-26T06:26:17;100472.47;;;7.54;100.00
72061;BME280;59925;52.136;5.420;2023-03-26T06:28:44;100469.25;;;7.57;100.00
72061;BME280;59925;52.136;5.420;2023-03-26T06:31:10;100467.41;;;7.57;100.00
72061;BME280;59925;52.136;5.420;2023-03-26T06:33:37;100466.34;;;7.58;100.00
72061;BME280;59925;52.136;5.420;2023-03-26T06:36:04;100465.03;;;7.61;100.00
72061;BME280;59925;52.136;5.420;2023-03-26T06:38:30;100464.53;;;7.64;100.00
72061;BME280;59925;52.136;5.420;2023-03-26T06:41:01;100466.13;;;7.65;100.00
72061;BME280;59925;52.136;5.420;2023-03-26T06:43:28;100465.84;;;7.66;100.00
72061;BME280;59925;52.136;5.420;2023-03-26T06:46:00;100462.13;;;7.67;100.00
72061;BME280;59925;52.136;5.420;2023-03-26T06:48:26;100465.06;;;7.71;100.00
72061;BME280;59925;52.136;5.420;2023-03-26T06:50:53;100461.34;;;7.72;100.00
72061;BME280;59925;52.136;5.420;2023-03-26T06:53:20;100459.75;;;7.71;100.00
72061;BME280;59925;52.136;5.420;2023-03-26T06:55:47;100461.34;;;7.72;100.00
72061;BME280;59925;52.136;5.420;2023-03-26T06:58:13;100461.91;;;7.74;100.00
72061;BME280;59925;52.136;5.420;2023-03-26T07:00:40;100461.63;;;7.76;100.00
72061;BME280;59925;52.136;5.420;2023-03-26T07:03:07;100461.38;;;7.77;100.00
72061;BME280;59925;52.136;5.420;2023-03-26T07:05:35;100461.94;;;7.79;100.00
72061;BME280;59925;52.136;5.420;2023-03-26T07:08:01;100464.34;;;7.81;100.00
72061;BME280;59925;52.136;5.420;2023-03-26T07:10:28;100461.66;;;7.81;100.00
72061;BME280;59925;52.136;5.420;2023-03-26T07:12:54;100461.41;;;7.82;100.00
72061;BME280;59925;52.136;5.420;2023-03-26T07:15:21;100462.75;;;7.85;100.00
72061;BME280;59925;52.136;5.420;2023-03-26T07:17:47;100459.53;;;7.83;100.00
72061;BME280;59925;52.136;5.420;2023-03-26T07:20:14;100460.09;;;7.85;100.00
72061;BME280;59925;52.136;5.420;2023-03-26T07:22:41;100456.63;;;7.90;100.00
72061;BME280;59925;52.136;5.420;2023-03-26T07:25:08;100459.84;;;7.92;100.00
72061;BME280;59925;52.136;5.420;2023-03-26T07:30:19;100457.44;;;7.90;100.00
72061;BME280;59925;52.136;5.420;2023-03-26T07:33:04;100457.19;;;7.92;100.00
72061;BME280;59925;52.136;5.420;2023-03-26T07:35:40;100461.19;;;7.94;100.00
72061;BME280;59925;52.136;5.420;2023-03-26T07:41:16;100453.50;;;8.03;100.00
72061;BME280;59925;52.136;5.420;2023-03-26T07:46:28;100450.81;;;8.03;100.00
72061;BME280;59925;52.136;5.420;2023-03-26T07:48:57;100460.16;;;8.06;100.00
72061;BME280;59925;52.136;5.420;2023-03-26T07:51:25;100451.63;;;8.09;100.00
72061;BME280;59925;52.136;5.420;2023-03-26T07:53:52;100455.63;;;8.11;100.00
72061;BME280;59925;52.136;5.420;2023-03-26T07:56:32;100454.03;;;8.10;100.00
72061;BME280;59925;52.136;5.420;2023-03-26T08:07:59;100445.53;;;8.24;100.00
72061;BME280;59925;52.136;5.420;2023-03-26T08:13:24;100438.56;;;8.23;100.00
72061;BME280;59925;52.136;5.420;2023-03-26T08:18:49;100432.69;;;8.21;100.00
72061;BME280;59925;52.136;5.420;2023-03-26T08:21:29;100440.44;;;8.27;100.00
72061;BME280;59925;52.136;5.420;2023-03-26T08:29:32;100431.13;;;8.20;100.00
72061;BME280;59925;52.136;5.420;2023-03-26T08:32:02;100437.50;;;8.24;100.00
72061;BME280;59925;52.136;5.420;2023-03-26T08:34:29;100440.19;;;8.24;100.00
72061;BME280;59925;52.136;5.420;2023-03-26T08:36:56;100433.25;;;8.28;100.00
72061;BME280;59925;52.136;5.420;2023-03-26T08:39:22;100429.78;;;8.27;100.00
72061;BME280;59925;52.136;5.420;2023-03-26T08:44:49;100438.56;;;8.23;100.00
72061;BME280;59925;52.136;5.420;2023-03-26T08:56:00;100447.88;;;8.05;100.00
72061;BME280;59925;52.136;5.420;2023-03-26T09:01:35;100453.47;;;7.98;100.00
72061;BME280;59925;52.136;5.420;2023-03-26T09:23:46;100444.06;;;7.85;100.00
72061;BME280;59925;52.136;5.420;2023-03-26T09:29:20;100444.63;;;7.87;100.00
72061;BME280;59925;52.136;5.420;2023-03-26T09:32:05;100444.34;;;7.89;100.00
72061;BME280;59925;52.136;5.420;2023-03-26T09:37:50;100453.41;;;7.88;100.00
72061;BME280;59925;52.136;5.420;2023-03-26T09:43:07;100452.88;;;7.86;100.00
72061;BME280;59925;52.136;5.420;2023-03-26T09:48:45;100446.75;;;7.85;100.00
72061;BME280;59925;52.136;5.420;2023-03-26T09:57:03;100457.16;;;7.87;100.00
72061;BME280;59925;52.136;5.420;2023-03-26T10:04:58;100466.72;;;7.82;100.00
72061;BME280;59925;52.136;5.420;2023-03-26T10:07:40;100467.28;;;7.85;100.00
72061;BME280;59925;52.136;5.420;2023-03-26T10:13:01;100472.59;;;7.79;100.00
72061;BME280;59925;52.136;5.420;2023-03-26T10:16:10;100478.22;;;7.83;100.00
72061;BME280;59925;52.136;5.420;2023-03-26T10:19:44;100479.56;;;7.80;100.00
72061;BME280;59925;52.136;5.420;2023-03-26T10:24:50;100476.34;;;7.83;100.00
72061;BME280;59925;52.136;5.420;2023-03-26T10:30:31;100476.38;;;7.89;100.00
72061;BME280;59925;52.136;5.420;2023-03-26T10:33:40;100485.72;;;7.91;100.00
72061;BME280;59925;52.136;5.420;2023-03-26T10:36:34;100485.47;;;7.93;100.00
72061;BME280;59925;52.136;5.420;2023-03-26T10:42:31;100486.00;;;7.90;100.00
72061;BME280;59925;52.136;5.420;2023-03-26T10:45:11;100491.59;;;7.93;100.00
72061;BME280;59925;52.136;5.420;2023-03-26T10:47:57;100490.78;;;7.88;100.00
72061;BME280;59925;52.136;5.420;2023-03-26T10:53:27;100498.53;;;7.89;100.00
72061;BME280;59925;52.136;5.420;2023-03-26T10:56:06;100496.91;;;7.88;100.00
72061;BME280;59925;52.136;5.420;2023-03-26T10:58:36;100500.13;;;7.85;100.00
72061;BME280;59925;52.136;5.420;2023-03-26T11:01:39;100511.03;;;7.83;100.00
72061;BME280;59925;52.136;5.420;2023-03-26T11:04:18;100512.09;;;7.82;100.00
72061;BME280;59925;52.136;5.420;2023-03-26T11:07:01;100504.69;;;7.90;100.00
72061;BME280;59925;52.136;5.420;2023-03-26T11:12:27;100512.44;;;7.96;100.00
72061;BME280;59925;52.136;5.420;2023-03-26T11:18:07;100504.91;;;7.83;100.00
72061;BME280;59925;52.136;5.420;2023-03-26T11:20:42;100509.19;;;7.89;100.00
72061;BME280;59925;52.136;5.420;2023-03-26T11:25:58;100516.72;;;7.97;100.00
72061;BME280;59925;52.136;5.420;2023-03-26T11:28:36;100525.81;;;8.02;100.00
72061;BME280;59925;52.136;5.420;2023-03-26T11:33:56;100528.88;;;8.26;100.00
72061;BME280;59925;52.136;5.420;2023-03-26T11:36:35;100533.69;;;8.29;99.89
72061;BME280;59925;52.136;5.420;2023-03-26T11:39:09;100533.66;;;8.24;99.49
72061;BME280;59925;52.136;5.420;2023-03-26T11:41:38;100531.72;;;8.14;98.76
72061;BME280;59925;52.136;5.420;2023-03-26T11:44:20;100540.00;;;8.12;98.35
72061;BME280;59925;52.136;5.420;2023-03-26T11:46:51;100534.41;;;8.09;98.43
72061;BME280;59925;52.136;5.420;2023-03-26T11:49:24;100541.53;;;7.98;97.90
72061;BME280;59925;52.136;5.420;2023-03-26T11:51:52;100539.94;;;7.92;97.30
72061;BME280;59925;52.136;5.420;2023-03-26T11:54:19;100538.78;;;7.82;97.41
72061;BME280;59925;52.136;5.420;2023-03-26T11:57:03;100546.00;;;7.82;96.99
72061;BME280;59925;52.136;5.420;2023-03-26T11:59:46;100544.41;;;7.81;97.14
72061;BME280;59925;52.136;5.420;2023-03-26T12:02:27;100549.22;;;7.84;97.10
72061;BME280;59925;52.136;5.420;2023-03-26T12:05:10;100551.94;;;7.94;97.20
72061;BME280;59925;52.136;5.420;2023-03-26T12:07:44;100551.72;;;8.01;97.42
72061;BME280;59925;52.136;5.420;2023-03-26T12:10:36;100550.16;;;8.10;97.25
72061;BME280;59925;52.136;5.420;2023-03-26T12:15:46;100551.53;;;8.13;96.67
72061;BME280;59925;52.136;5.420;2023-03-26T12:18:22;100551.78;;;8.17;96.83
72061;BME280;59925;52.136;5.420;2023-03-26T12:21:22;100558.97;;;8.16;96.47
72061;BME280;59925;52.136;5.420;2023-03-26T12:28:55;100557.78;;;8.44;95.75
72061;BME280;59925;52.136;5.420;2023-03-26T12:31:22;100567.19;;;8.57;95.58
72061;BME280;59925;52.136;5.420;2023-03-26T12:34:13;100560.81;;;8.64;95.05
72061;BME280;59925;52.136;5.420;2023-03-26T12:36:46;100565.91;;;8.70;94.43
72061;BME280;59925;52.136;5.420;2023-03-26T12:39:28;100570.72;;;8.68;93.02
72061;BME280;59925;52.136;5.420;2023-03-26T12:42:26;100573.13;;;8.70;92.24
72061;BME280;59925;52.136;5.420;2023-03-26T12:45:13;100579.56;;;8.74;91.43
72061;BME280;59925;52.136;5.420;2023-03-26T12:47:40;100576.09;;;8.79;90.91
72061;BME280;59925;52.136;5.420;2023-03-26T12:59:25;100580.94;;;8.97;88.83
72061;BME280;59925;52.136;5.420;2023-03-26T13:16:42;100592.22;;;9.46;85.44
72061;BME280;59925;52.136;5.420;2023-03-26T13:19:46;100599.44;;;9.40;83.63
72061;BME280;59925;52.136;5.420;2023-03-26T13:22:38;100602.91;;;9.46;83.86
72061;BME280;59925;52.136;5.420;2023-03-26T13:33:06;100621.09;;;9.28;81.73
72061;BME280;59925;52.136;5.420;2023-03-26T13:35:48;100612.25;;;9.33;81.35
72061;BME280;59925;52.136;5.420;2023-03-26T13:44:36;100625.38;;;9.29;80.55
72061;BME280;59925;52.136;5.420;2023-03-26T13:47:12;100627.25;;;9.34;80.16
72061;BME280;59925;52.136;5.420;2023-03-26T13:49:47;100628.06;;;9.45;80.26
72061;BME280;59925;52.136;5.420;2023-03-26T13:52:32;100630.22;;;9.58;80.12
72061;BME280;59925;52.136;5.420;2023-03-26T13:58:33;100628.88;;;9.50;78.06
72061;BME280;59925;52.136;5.420;2023-03-26T14:00:47;100628.63;;;9.62;79.31
72061;BME280;59925;52.136;5.420;2023-03-26T14:03:22;100636.63;;;9.68;78.46
72061;BME280;59925;52.136;5.420;2023-03-26T14:05:54;100640.13;;;9.63;78.04
72061;BME280;59925;52.136;5.420;2023-03-26T14:08:39;100633.97;;;9.57;77.93
72061;BME280;59925;52.136;5.420;2023-03-26T14:11:12;100643.59;;;9.53;78.13
72061;BME280;59925;52.136;5.420;2023-03-26T14:13:54;100656.16;;;9.42;77.31
72061;BME280;59925;52.136;5.420;2023-03-26T14:16:34;100659.66;;;9.38;76.67
72061;BME280;59925;52.136;5.420;2023-03-26T14:19:21;100664.19;;;9.32;77.20
72061;BME280;59925;52.136;5.420;2023-03-26T14:22:30;100662.84;;;9.24;77.01
72061;BME280;59925;52.136;5.420;2023-03-26T14:28:13;100672.13;;;9.01;76.12
72061;BME280;59925;52.136;5.420;2023-03-26T14:33:49;100676.97;;;9.04;76.28
72061;BME280;59925;52.136;5.420;2023-03-26T14:42:00;100703.38;;;9.00;74.86
72061;BME280;59925;52.136;5.420;2023-03-26T14:47:20;100706.03;;;8.85;74.73
72061;BME280;59925;52.136;5.420;2023-03-26T14:55:11;100723.06;;;8.73;73.58
72061;BME280;59925;52.136;5.420;2023-03-26T14:58:00;100726.78;;;8.67;74.13
72061;BME280;59925;52.136;5.420;2023-03-26T15:13:58;100745.59;;;8.45;73.60
72061;BME280;59925;52.136;5.420;2023-03-26T15:19:11;100756.63;;;8.54;73.83
72061;BME280;59925;52.136;5.420;2023-03-26T15:38:27;100783.41;;;8.59;71.26
72061;BME280;59925;52.136;5.420;2023-03-26T15:49:44;100801.56;;;8.29;70.75
72061;BME280;59925;52.136;5.420;2023-03-26T15:55:08;100814.56;;;8.21;70.96
72061;BME280;59925;52.136;5.420;2023-03-26T15:57:58;100820.66;;;8.11;70.21
72061;BME280;59925;52.136;5.420;2023-03-26T16:00:35;100828.88;;;8.04;70.32
72061;BME280;59925;52.136;5.420;2023-03-26T16:05:48;100847.78;;;8.03;70.94
72061;BME280;59925;52.136;5.420;2023-03-26T16:11:09;100857.81;;;7.90;70.50
72061;BME280;59925;52.136;5.420;2023-03-26T16:13:42;100866.88;;;7.89;70.96
72061;BME280;59925;52.136;5.420;2023-03-26T16:18:54;100868.63;;;7.78;69.83
72061;BME280;59925;52.136;5.420;2023-03-26T16:29:18;100880.75;;;7.64;69.13
72061;BME280;59925;52.136;5.420;2023-03-26T16:34:57;100891.53;;;7.52;69.06
72061;BME280;59925;52.136;5.420;2023-03-26T16:43:24;100915.66;;;7.40;69.29
72061;BME280;59925;52.136;5.420;2023-03-26T16:48:57;100933.63;;;7.28;68.73
72061;BME280;59925;52.136;5.420;2023-03-26T16:57:01;100950.91;;;7.25;67.79
72061;BME280;59925;52.136;5.420;2023-03-26T17:02:34;100968.38;;;7.16;68.04
72061;BME280;59925;52.136;5.420;2023-03-26T17:05:23;100977.84;;;7.07;67.32
72061;BME280;59925;52.136;5.420;2023-03-26T17:07:57;100978.31;;;7.03;67.30
72061;BME280;59925;52.136;5.420;2023-03-26T17:13:20;100987.66;;;6.89;67.06
72061;BME280;59925;52.136;5.420;2023-03-26T17:16:13;100988.88;;;6.81;66.88
72061;BME280;59925;52.136;5.420;2023-03-26T17:19:10;100992.72;;;6.73;66.31
72061;BME280;59925;52.136;5.420;2023-03-26T17:24:50;101015.69;;;6.63;66.54
72061;BME280;59925;52.136;5.420;2023-03-26T17:28:04;101033.81;;;6.61;66.34
72061;BME280;59925;52.136;5.420;2023-03-26T17:30:50;101025.44;;;6.57;66.55
72061;BME280;59925;52.136;5.420;2023-03-26T17:33:26;101036.81;;;6.52;66.18
72061;BME280;59925;52.136;5.420;2023-03-26T17:41:12;101055.59;;;6.46;67.56
72061;BME280;59925;52.136;5.420;2023-03-26T17:43:51;101059.56;;;6.43;68.17
72061;BME280;59925;52.136;5.420;2023-03-26T17:46:40;101064.56;;;6.39;67.89
72061;BME280;59925;52.136;5.420;2023-03-26T17:52:03;101064.00;;;6.25;67.17
72061;BME280;59925;52.136;5.420;2023-03-26T17:54:40;101075.34;;;6.21;67.59
72061;BME280;59925;52.136;5.420;2023-03-26T17:57:42;101074.19;;;6.17;67.17
72061;BME280;59925;52.136;5.420;2023-03-26T18:00:21;101086.13;;;6.14;67.09
72061;BME280;59925;52.136;5.420;2023-03-26T18:02:53;101085.88;;;6.16;67.19
72061;BME280;59925;52.136;5.420;2023-03-26T18:05:23;101091.56;;;6.07;66.78
72061;BME280;59925;52.136;5.420;2023-03-26T18:16:36;101112.91;;;5.65;66.98